createdAt,value
2022-08-28T00:00:41.251Z,1016.29
2022-08-28T00:01:41.408Z,1016.23
2022-08-28T00:02:41.621Z,1016.32
2022-08-28T00:03:41.760Z,1016.28
2022-08-28T00:04:41.972Z,1016.31
2022-08-28T00:05:42.140Z,1016.29
2022-08-28T00:06:42.310Z,1016.31
2022-08-28T00:07:47.477Z,1016.33
2022-08-28T00:08:43.650Z,1016.32
2022-08-28T00:09:42.829Z,1016.32
2022-08-28T00:10:43.042Z,1016.35
2022-08-28T00:11:43.212Z,1016.36
2022-08-28T00:12:43.406Z,1016.36
2022-08-28T00:13:43.560Z,1016.35
2022-08-28T00:14:43.750Z,1016.35
2022-08-28T00:15:43.983Z,1016.38
2022-08-28T00:16:44.092Z,1016.37
2022-08-28T00:17:44.253Z,1016.36
2022-08-28T00:18:44.442Z,1016.38
2022-08-28T00:19:44.600Z,1016.39
2022-08-28T00:20:44.824Z,1016.32
2022-08-28T00:21:44.970Z,1016.35
2022-08-28T00:22:45.135Z,1016.36
2022-08-28T00:23:45.282Z,1016.39
2022-08-28T00:24:45.481Z,1016.40
2022-08-28T00:25:45.651Z,1016.41
2022-08-28T00:26:45.811Z,1016.41
2022-08-28T00:27:45.972Z,1016.43
2022-08-28T00:28:46.132Z,1016.41
2022-08-28T00:29:46.290Z,1016.41
2022-08-28T00:30:46.469Z,1016.39
2022-08-28T00:31:46.689Z,1016.40
2022-08-28T00:32:46.782Z,1016.43
2022-08-28T00:33:48.229Z,1016.40
2022-08-28T00:34:47.112Z,1016.40
2022-08-28T00:35:47.283Z,1016.41
2022-08-28T00:36:47.450Z,1016.45
2022-08-28T00:37:48.181Z,1016.40
2022-08-28T00:38:47.772Z,1016.40
2022-08-28T00:39:47.943Z,1016.43
2022-08-28T00:40:48.208Z,1016.46
2022-08-28T00:41:48.263Z,1016.45
2022-08-28T00:42:48.453Z,1016.49
2022-08-28T00:43:48.614Z,1016.46
2022-08-28T00:44:48.813Z,1016.43
2022-08-28T00:45:48.989Z,1016.45
2022-08-28T00:46:49.209Z,1016.40
2022-08-28T00:47:49.332Z,1016.43
2022-08-28T00:48:49.493Z,1016.37
2022-08-28T00:49:49.644Z,1016.41
2022-08-28T00:50:49.854Z,1016.42
2022-08-28T00:51:50.017Z,1016.40
2022-08-28T00:52:50.211Z,1016.36
2022-08-28T00:53:50.375Z,1016.40
2022-08-28T00:54:58.354Z,1016.39
2022-08-28T00:55:51.753Z,1016.43
2022-08-28T00:56:50.933Z,1016.34
2022-08-28T00:57:51.084Z,1016.36
2022-08-28T00:58:51.274Z,1016.37
2022-08-28T00:59:51.445Z,1016.39
2022-08-28T01:00:51.625Z,1016.35
2022-08-28T01:01:51.819Z,1016.34
2022-08-28T01:02:51.974Z,1016.36
2022-08-28T01:03:52.126Z,1016.34
2022-08-28T01:04:52.285Z,1016.33
2022-08-28T01:05:52.455Z,1016.32
2022-08-28T01:06:52.617Z,1016.32
2022-08-28T01:07:52.775Z,1016.33
2022-08-28T01:08:52.968Z,1016.34
2022-08-28T01:09:53.126Z,1016.33
2022-08-28T01:10:53.305Z,1016.31
2022-08-28T01:11:53.473Z,1016.35
2022-08-28T01:12:53.625Z,1016.36
2022-08-28T01:13:53.785Z,1016.33
2022-08-28T01:14:53.977Z,1016.33
2022-08-28T01:15:54.185Z,1016.40
2022-08-28T01:16:54.326Z,1016.42
2022-08-28T01:17:54.477Z,1016.43
2022-08-28T01:18:54.676Z,1016.40
2022-08-28T01:19:54.846Z,1016.40
2022-08-28T01:20:55.981Z,1016.39
2022-08-28T01:21:55.186Z,1016.45
2022-08-28T01:22:55.383Z,1016.39
2022-08-28T01:23:55.536Z,1016.45
2022-08-28T01:24:55.716Z,1016.43
2022-08-28T01:25:55.867Z,1016.43
2022-08-28T01:26:56.068Z,1016.44
2022-08-28T01:27:56.245Z,1016.48
2022-08-28T01:28:56.405Z,1016.48
2022-08-28T01:29:56.596Z,1016.47
2022-08-28T01:30:56.760Z,1016.52
2022-08-28T01:31:56.907Z,1016.47
2022-08-28T01:32:57.097Z,1016.49
2022-08-28T01:33:57.257Z,1016.53
2022-08-28T01:34:57.467Z,1016.51
2022-08-28T01:35:57.630Z,1016.54
2022-08-28T01:36:58.593Z,1016.53
2022-08-28T01:37:58.985Z,1016.49
2022-08-28T01:38:58.169Z,1016.55
2022-08-28T01:39:58.372Z,1016.53
2022-08-28T01:40:58.493Z,1016.52
2022-08-28T01:41:58.648Z,1016.56
2022-08-28T01:42:58.808Z,1016.52
2022-08-28T01:43:58.968Z,1016.53
2022-08-28T01:44:59.149Z,1016.57
2022-08-28T01:45:59.306Z,1016.59
2022-08-28T01:46:59.476Z,1016.59
2022-08-28T01:47:59.638Z,1016.59
2022-08-28T01:48:59.808Z,1016.59
2022-08-28T01:49:59.996Z,1016.56
2022-08-28T01:51:00.156Z,1016.53
2022-08-28T01:52:00.315Z,1016.50
2022-08-28T01:53:00.498Z,1016.52
2022-08-28T01:54:00.649Z,1016.53
2022-08-28T01:55:00.858Z,1016.48
2022-08-28T01:56:01.009Z,1016.48
2022-08-28T01:57:01.181Z,1016.47
2022-08-28T01:58:01.329Z,1016.47
2022-08-28T01:59:01.529Z,1016.47
2022-08-28T02:00:01.699Z,1016.52
2022-08-28T02:01:01.859Z,1016.48
2022-08-28T02:02:02.042Z,1016.51
2022-08-28T02:03:02.217Z,1016.52
2022-08-28T02:04:02.496Z,1016.48
2022-08-28T02:05:02.573Z,1016.54
2022-08-28T02:06:02.729Z,1016.51
2022-08-28T02:07:02.919Z,1016.52
2022-08-28T02:08:03.090Z,1016.53
2022-08-28T02:09:03.264Z,1016.54
2022-08-28T02:10:03.430Z,1016.54
2022-08-28T02:11:03.590Z,1016.55
2022-08-28T02:12:03.751Z,1016.55
2022-08-28T02:13:03.909Z,1016.52
2022-08-28T02:14:04.060Z,1016.55
2022-08-28T02:15:04.271Z,1016.57
2022-08-28T02:16:04.514Z,1016.60
2022-08-28T02:17:04.620Z,1016.59
2022-08-28T02:18:04.785Z,1016.59
2022-08-28T02:19:04.970Z,1016.62
2022-08-28T02:20:05.151Z,1016.60
2022-08-28T02:21:05.321Z,1016.62
2022-08-28T02:22:05.513Z,1016.64
2022-08-28T02:23:05.708Z,1016.66
2022-08-28T02:24:05.862Z,1016.68
2022-08-28T02:25:06.070Z,1016.70
2022-08-28T02:26:06.227Z,1016.68
2022-08-28T02:27:06.411Z,1016.69
2022-08-28T02:28:06.571Z,1016.69
2022-08-28T02:29:06.742Z,1016.65
2022-08-28T02:30:06.913Z,1016.68
2022-08-28T02:31:07.221Z,1016.67
2022-08-28T02:32:07.243Z,1016.68
2022-08-28T02:33:07.433Z,1016.70
2022-08-28T02:34:07.592Z,1016.66
2022-08-28T02:35:08.785Z,1016.68
2022-08-28T02:36:07.960Z,1016.65
2022-08-28T02:37:08.152Z,1016.65
2022-08-28T02:38:08.404Z,1016.64
2022-08-28T02:39:08.522Z,1016.66
2022-08-28T02:40:08.741Z,1016.64
2022-08-28T02:41:08.849Z,1016.60
2022-08-28T02:42:09.002Z,1016.67
2022-08-28T02:43:09.193Z,1016.62
2022-08-28T02:44:09.364Z,1016.64
2022-08-28T02:45:09.565Z,1016.62
2022-08-28T02:46:09.762Z,1016.63
2022-08-28T02:47:09.863Z,1016.59
2022-08-28T02:48:16.782Z,1016.65
2022-08-28T02:49:11.223Z,1016.64
2022-08-28T02:50:10.392Z,1016.65
2022-08-28T02:51:10.562Z,1016.61
2022-08-28T02:52:10.717Z,1016.64
2022-08-28T02:53:10.911Z,1016.64
2022-08-28T02:54:11.084Z,1016.65
2022-08-28T02:55:11.231Z,1016.66
2022-08-28T02:56:11.384Z,1016.67
2022-08-28T02:57:11.584Z,1016.63
2022-08-28T02:58:11.899Z,1016.65
2022-08-28T02:59:11.924Z,1016.64
2022-08-28T03:00:12.085Z,1016.66
2022-08-28T03:01:12.497Z,1016.67
2022-08-28T03:02:12.441Z,1016.64
2022-08-28T03:03:12.583Z,1016.66
2022-08-28T03:04:12.753Z,1016.64
2022-08-28T03:05:12.915Z,1016.63
2022-08-28T03:06:13.074Z,1016.64
2022-08-28T03:07:13.234Z,1016.65
2022-08-28T03:08:13.486Z,1016.60
2022-08-28T03:09:13.583Z,1016.59
2022-08-28T03:10:13.743Z,1016.56
2022-08-28T03:11:13.895Z,1016.61
2022-08-28T03:12:14.054Z,1016.60
2022-08-28T03:13:25.078Z,1016.59
2022-08-28T03:14:15.447Z,1016.57
2022-08-28T03:15:14.595Z,1016.56
2022-08-28T03:16:14.807Z,1016.57
2022-08-28T03:17:14.944Z,1016.58
2022-08-28T03:18:15.371Z,1016.58
2022-08-28T03:19:15.316Z,1016.60
2022-08-28T03:20:15.474Z,1016.57
2022-08-28T03:21:15.665Z,1016.56
2022-08-28T03:22:15.835Z,1016.60
2022-08-28T03:23:16.030Z,1016.64
2022-08-28T03:24:16.198Z,1016.65
2022-08-28T03:25:16.366Z,1016.62
2022-08-28T03:26:16.515Z,1016.68
2022-08-28T03:27:16.713Z,1016.64
2022-08-28T03:28:16.866Z,1016.65
2022-08-28T03:29:17.079Z,1016.68
2022-08-28T03:30:17.236Z,1016.72
2022-08-28T03:31:17.491Z,1016.68
2022-08-28T03:32:17.598Z,1016.71
2022-08-28T03:33:17.786Z,1016.69
2022-08-28T03:34:17.955Z,1016.72
2022-08-28T03:35:18.116Z,1016.75
2022-08-28T03:36:18.266Z,1016.70
2022-08-28T03:37:18.464Z,1016.75
2022-08-28T03:38:18.617Z,1016.73
2022-08-28T03:39:18.827Z,1016.73
2022-08-28T03:40:19.001Z,1016.72
2022-08-28T03:41:19.173Z,1016.71
2022-08-28T03:42:19.327Z,1016.74
2022-08-28T03:43:19.518Z,1016.78
2022-08-28T03:44:19.687Z,1016.75
2022-08-28T03:45:19.847Z,1016.70
2022-08-28T03:46:20.063Z,1016.76
2022-08-28T03:47:20.176Z,1016.75
2022-08-28T03:48:20.347Z,1016.72
2022-08-28T03:49:20.554Z,1016.75
2022-08-28T03:50:20.697Z,1016.74
2022-08-28T03:51:21.213Z,1016.76
2022-08-28T03:52:22.038Z,1016.77
2022-08-28T03:53:21.229Z,1016.72
2022-08-28T03:54:21.410Z,1016.71
2022-08-28T03:55:21.577Z,1016.74
2022-08-28T03:56:21.755Z,1016.75
2022-08-28T03:57:21.935Z,1016.77
2022-08-28T03:58:22.107Z,1016.78
2022-08-28T03:59:22.323Z,1016.80
2022-08-28T04:00:22.478Z,1016.77
2022-08-28T04:01:22.695Z,1016.79
2022-08-28T04:02:22.828Z,1016.79
2022-08-28T04:03:23.062Z,1016.81
2022-08-28T04:04:23.175Z,1016.80
2022-08-28T04:05:23.348Z,1016.84
2022-08-28T04:06:23.538Z,1016.89
2022-08-28T04:07:23.718Z,1016.85
2022-08-28T04:08:23.898Z,1016.88
2022-08-28T04:09:24.100Z,1016.84
2022-08-28T04:10:24.259Z,1016.88
2022-08-28T04:11:24.438Z,1016.82
2022-08-28T04:12:24.619Z,1016.87
2022-08-28T04:13:24.807Z,1016.86
2022-08-28T04:14:25.009Z,1016.85
2022-08-28T04:15:25.179Z,1016.89
2022-08-28T04:16:25.458Z,1016.91
2022-08-28T04:17:25.518Z,1016.86
2022-08-28T04:18:25.708Z,1016.94
2022-08-28T04:19:25.909Z,1016.92
2022-08-28T04:20:26.089Z,1016.94
2022-08-28T04:21:26.251Z,1016.95
2022-08-28T04:22:26.429Z,1016.94
2022-08-28T04:23:26.618Z,1016.98
2022-08-28T04:24:26.820Z,1017.03
2022-08-28T04:25:26.959Z,1017.04
2022-08-28T04:26:27.139Z,1017.05
2022-08-28T04:27:27.319Z,1017.09
2022-08-28T04:28:27.499Z,1017.11
2022-08-28T04:29:27.700Z,1017.12
2022-08-28T04:30:27.840Z,1017.12
2022-08-28T04:31:31.819Z,1017.21
2022-08-28T04:32:28.219Z,1017.20
2022-08-28T04:33:28.429Z,1017.21
2022-08-28T04:34:28.589Z,1017.27
2022-08-28T04:35:28.731Z,1017.30
2022-08-28T04:36:28.909Z,1017.22
2022-08-28T04:37:29.060Z,1017.32
2022-08-28T04:38:29.251Z,1017.32
2022-08-28T04:39:29.450Z,1017.32
2022-08-28T04:40:29.681Z,1017.38
2022-08-28T04:41:29.792Z,1017.35
2022-08-28T04:42:29.990Z,1017.36
2022-08-28T04:43:30.155Z,1017.32
2022-08-28T04:44:30.350Z,1017.34
2022-08-28T04:45:30.549Z,1017.32
2022-08-28T04:46:31.152Z,1017.35
2022-08-28T04:47:30.850Z,1017.32
2022-08-28T04:48:31.031Z,1017.34
2022-08-28T04:49:31.230Z,1017.35
2022-08-28T04:50:31.390Z,1017.34
2022-08-28T04:51:31.540Z,1017.38
2022-08-28T04:52:31.708Z,1017.40
2022-08-28T04:53:31.860Z,1017.32
2022-08-28T04:54:32.070Z,1017.37
2022-08-28T04:55:53.356Z,1017.35
2022-08-28T04:56:33.412Z,1017.35
2022-08-28T04:57:36.227Z,1017.38
2022-08-28T04:58:32.762Z,1017.36
2022-08-28T04:59:32.944Z,1017.38
2022-08-28T05:00:33.102Z,1017.34
2022-08-28T05:01:33.314Z,1017.39
2022-08-28T05:02:33.534Z,1017.35
2022-08-28T05:03:33.643Z,1017.32
2022-08-28T05:04:33.792Z,1017.35
2022-08-28T05:05:33.963Z,1017.36
2022-08-28T05:06:34.163Z,1017.37
2022-08-28T05:07:34.341Z,1017.36
2022-08-28T05:08:34.511Z,1017.38
2022-08-28T05:09:34.655Z,1017.36
2022-08-28T05:10:34.832Z,1017.37
2022-08-28T05:11:35.246Z,1017.41
2022-08-28T05:12:35.179Z,1017.37
2022-08-28T05:13:35.372Z,1017.42
2022-08-28T05:14:35.511Z,1017.41
2022-08-28T05:15:35.692Z,1017.41
2022-08-28T05:16:35.900Z,1017.42
2022-08-28T05:17:36.062Z,1017.46
2022-08-28T05:18:36.243Z,1017.47
2022-08-28T05:19:36.380Z,1017.44
2022-08-28T05:20:36.562Z,1017.44
2022-08-28T05:21:36.722Z,1017.46
2022-08-28T05:22:36.903Z,1017.45
2022-08-28T05:23:37.099Z,1017.46
2022-08-28T05:24:37.250Z,1017.46
2022-08-28T05:25:37.404Z,1017.45
2022-08-28T05:26:40.071Z,1017.44
2022-08-28T05:27:37.743Z,1017.44
2022-08-28T05:28:37.942Z,1017.44
2022-08-28T05:29:38.092Z,1017.47
2022-08-28T05:30:38.274Z,1017.43
2022-08-28T05:31:38.498Z,1017.34
2022-08-28T05:32:38.625Z,1017.37
2022-08-28T05:33:38.813Z,1017.40
2022-08-28T05:34:38.985Z,1017.42
2022-08-28T05:35:39.146Z,1017.43
2022-08-28T05:36:39.333Z,1017.47
2022-08-28T05:37:39.513Z,1017.45
2022-08-28T05:38:39.714Z,1017.49
2022-08-28T05:39:39.863Z,1017.46
2022-08-28T05:40:40.051Z,1017.46
2022-08-28T05:41:40.206Z,1017.47
2022-08-28T05:42:40.383Z,1017.43
2022-08-28T05:43:40.588Z,1017.48
2022-08-28T05:44:40.734Z,1017.47
2022-08-28T05:45:40.956Z,1017.45
2022-08-28T05:46:41.092Z,1017.46
2022-08-28T05:47:41.263Z,1017.47
2022-08-28T05:48:41.465Z,1017.47
2022-08-28T05:49:41.614Z,1017.48
2022-08-28T05:50:47.167Z,1017.44
2022-08-28T05:51:42.975Z,1017.51
2022-08-28T05:52:42.165Z,1017.49
2022-08-28T05:53:42.335Z,1017.50
2022-08-28T05:54:42.495Z,1017.52
2022-08-28T05:55:42.674Z,1017.53
2022-08-28T05:56:42.855Z,1017.52
2022-08-28T05:57:43.024Z,1017.54
2022-08-28T05:58:43.233Z,1017.52
2022-08-28T05:59:43.365Z,1017.58
2022-08-28T06:00:43.548Z,1017.57
2022-08-28T06:01:43.774Z,1017.54
2022-08-28T06:02:43.875Z,1017.53
2022-08-28T06:03:44.145Z,1017.54
2022-08-28T06:04:44.234Z,1017.57
2022-08-28T06:05:44.416Z,1017.53
2022-08-28T06:06:44.597Z,1017.55
2022-08-28T06:07:44.776Z,1017.55
2022-08-28T06:08:58.377Z,1017.54
2022-08-28T06:09:46.124Z,1017.53
2022-08-28T06:10:45.899Z,1017.52
2022-08-28T06:11:46.235Z,1017.52
2022-08-28T06:12:45.698Z,1017.52
2022-08-28T06:13:45.885Z,1017.51
2022-08-28T06:14:46.046Z,1017.50
2022-08-28T06:15:46.247Z,1017.55
2022-08-28T06:16:46.365Z,1017.52
2022-08-28T06:17:46.546Z,1017.58
2022-08-28T06:18:46.755Z,1017.55
2022-08-28T06:19:46.912Z,1017.56
2022-08-28T06:20:47.088Z,1017.59
2022-08-28T06:21:47.266Z,1017.63
2022-08-28T06:22:47.453Z,1017.60
2022-08-28T06:23:47.646Z,1017.61
2022-08-28T06:24:47.817Z,1017.61
2022-08-28T06:25:47.976Z,1017.64
2022-08-28T06:26:48.150Z,1017.67
2022-08-28T06:27:48.328Z,1017.62
2022-08-28T06:28:48.541Z,1017.62
2022-08-28T06:29:48.677Z,1017.63
2022-08-28T06:31:08.878Z,1017.62
2022-08-28T06:31:50.144Z,1017.64
2022-08-28T06:32:49.247Z,1017.62
2022-08-28T06:33:49.418Z,1017.64
2022-08-28T06:34:49.576Z,1017.58
2022-08-28T06:35:49.757Z,1017.62
2022-08-28T06:36:53.814Z,1017.56
2022-08-28T06:37:50.127Z,1017.56
2022-08-28T06:38:50.327Z,1017.55
2022-08-28T06:39:50.478Z,1017.62
2022-08-28T06:40:50.677Z,1017.62
2022-08-28T06:41:50.828Z,1017.59
2022-08-28T06:42:51.007Z,1017.63
2022-08-28T06:43:51.185Z,1017.63
2022-08-28T06:44:51.337Z,1017.66
2022-08-28T06:45:51.548Z,1017.71
2022-08-28T06:46:51.707Z,1017.68
2022-08-28T06:47:51.890Z,1017.70
2022-08-28T06:48:52.070Z,1017.76
2022-08-28T06:49:52.217Z,1017.72
2022-08-28T06:50:52.379Z,1017.79
2022-08-28T06:51:52.558Z,1017.80
2022-08-28T06:52:52.748Z,1017.80
2022-08-28T06:53:52.922Z,1017.84
2022-08-28T06:54:55.844Z,1017.84
2022-08-28T06:55:53.229Z,1017.84
2022-08-28T06:56:53.419Z,1017.83
2022-08-28T06:57:53.579Z,1017.86
2022-08-28T06:58:53.786Z,1017.84
2022-08-28T06:59:53.939Z,1017.90
2022-08-28T07:01:02.312Z,1017.94
2022-08-28T07:01:55.364Z,1017.90
2022-08-28T07:02:54.494Z,1017.90
2022-08-28T07:03:54.619Z,1017.91
2022-08-28T07:04:54.779Z,1017.96
2022-08-28T07:05:54.960Z,1017.96
2022-08-28T07:06:55.179Z,1017.96
2022-08-28T07:07:55.310Z,1017.99
2022-08-28T07:08:55.510Z,1017.99
2022-08-28T07:09:55.649Z,1018.03
2022-08-28T07:10:55.830Z,1018.02
2022-08-28T07:11:55.990Z,1018.03
2022-08-28T07:12:56.177Z,1018.04
2022-08-28T07:13:56.362Z,1018.08
2022-08-28T07:14:56.540Z,1018.10
2022-08-28T07:15:56.773Z,1018.09
2022-08-28T07:16:56.880Z,1018.07
2022-08-28T07:17:57.039Z,1018.10
2022-08-28T07:18:57.255Z,1018.03
2022-08-28T07:19:57.402Z,1018.10
2022-08-28T07:20:57.581Z,1018.11
2022-08-28T07:21:57.730Z,1018.07
2022-08-28T07:22:59.703Z,1018.10
2022-08-28T07:23:58.121Z,1018.11
2022-08-28T07:24:58.279Z,1018.13
2022-08-28T07:25:58.451Z,1018.12
2022-08-28T07:26:58.631Z,1018.15
2022-08-28T07:27:58.811Z,1018.17
2022-08-28T07:29:09.545Z,1018.17
2022-08-28T07:30:00.188Z,1018.18
2022-08-28T07:30:59.415Z,1018.21
2022-08-28T07:31:59.549Z,1018.21
2022-08-28T07:32:59.739Z,1018.19
2022-08-28T07:33:59.902Z,1018.25
2022-08-28T07:35:00.126Z,1018.20
2022-08-28T07:36:00.251Z,1018.24
2022-08-28T07:37:00.464Z,1018.21
2022-08-28T07:38:00.602Z,1018.25
2022-08-28T07:39:00.799Z,1018.22
2022-08-28T07:40:00.992Z,1018.22
2022-08-28T07:41:01.132Z,1018.20
2022-08-28T07:42:01.312Z,1018.24
2022-08-28T07:43:01.493Z,1018.23
2022-08-28T07:44:01.683Z,1018.21
2022-08-28T07:45:01.843Z,1018.23
2022-08-28T07:46:02.073Z,1018.24
2022-08-28T07:47:02.183Z,1018.25
2022-08-28T07:48:02.353Z,1018.24
2022-08-28T07:49:02.492Z,1018.25
2022-08-28T07:50:02.741Z,1018.27
2022-08-28T07:51:02.854Z,1018.30
2022-08-28T07:52:03.046Z,1018.27
2022-08-28T07:53:03.243Z,1018.29
2022-08-28T07:54:03.403Z,1018.29
2022-08-28T07:55:03.563Z,1018.33
2022-08-28T07:56:03.745Z,1018.35
2022-08-28T07:57:03.933Z,1018.34
2022-08-28T07:58:04.127Z,1018.35
2022-08-28T07:59:04.284Z,1018.35
2022-08-28T08:00:04.466Z,1018.35
2022-08-28T08:01:04.708Z,1018.35
2022-08-28T08:02:04.808Z,1018.43
2022-08-28T08:03:05.065Z,1018.41
2022-08-28T08:04:05.165Z,1018.40
2022-08-28T08:05:05.345Z,1018.44
2022-08-28T08:06:05.504Z,1018.36
2022-08-28T08:07:05.702Z,1018.42
2022-08-28T08:08:05.883Z,1018.40
2022-08-28T08:09:06.035Z,1018.37
2022-08-28T08:10:06.235Z,1018.42
2022-08-28T08:11:06.375Z,1018.36
2022-08-28T08:12:06.557Z,1018.38
2022-08-28T08:13:06.755Z,1018.44
2022-08-28T08:14:06.896Z,1018.43
2022-08-28T08:15:07.079Z,1018.44
2022-08-28T08:16:07.346Z,1018.46
2022-08-28T08:17:07.646Z,1018.45
2022-08-28T08:18:07.627Z,1018.47
2022-08-28T08:19:07.773Z,1018.44
2022-08-28T08:20:07.947Z,1018.44
2022-08-28T08:21:08.132Z,1018.46
2022-08-28T08:22:08.286Z,1018.45
2022-08-28T08:23:08.476Z,1018.44
2022-08-28T08:24:08.626Z,1018.40
2022-08-28T08:25:08.806Z,1018.43
2022-08-28T08:26:08.996Z,1018.45
2022-08-28T08:27:09.192Z,1018.44
2022-08-28T08:28:09.390Z,1018.47
2022-08-28T08:29:09.521Z,1018.48
2022-08-28T08:30:09.697Z,1018.50
2022-08-28T08:31:09.981Z,1018.47
2022-08-28T08:32:10.056Z,1018.50
2022-08-28T08:33:10.197Z,1018.46
2022-08-28T08:34:10.397Z,1018.46
2022-08-28T08:35:10.579Z,1018.46
2022-08-28T08:36:10.738Z,1018.52
2022-08-28T08:37:10.927Z,1018.54
2022-08-28T08:38:11.207Z,1018.50
2022-08-28T08:39:11.248Z,1018.51
2022-08-28T08:40:11.439Z,1018.51
2022-08-28T08:41:11.589Z,1018.48
2022-08-28T08:42:11.788Z,1018.51
2022-08-28T08:43:11.938Z,1018.51
2022-08-28T08:44:12.129Z,1018.49
2022-08-28T08:45:12.295Z,1018.53
2022-08-28T08:46:12.499Z,1018.51
2022-08-28T08:47:14.998Z,1018.50
2022-08-28T08:48:12.904Z,1018.51
2022-08-28T08:49:12.949Z,1018.50
2022-08-28T08:50:13.145Z,1018.57
2022-08-28T08:51:13.289Z,1018.51
2022-08-28T08:52:13.489Z,1018.46
2022-08-28T08:53:13.670Z,1018.49
2022-08-28T08:54:13.837Z,1018.49
2022-08-28T08:55:14.966Z,1018.54
2022-08-28T08:56:14.140Z,1018.44
2022-08-28T08:57:14.340Z,1018.52
2022-08-28T08:58:14.628Z,1018.57
2022-08-28T08:59:14.691Z,1018.49
2022-08-28T09:00:16.096Z,1018.49
2022-08-28T09:01:15.066Z,1018.56
2022-08-28T09:02:15.220Z,1018.53
2022-08-28T09:03:15.540Z,1018.57
2022-08-28T09:04:15.804Z,1018.55
2022-08-28T09:05:15.722Z,1018.60
2022-08-28T09:06:15.906Z,1018.55
2022-08-28T09:07:16.092Z,1018.53
2022-08-28T09:08:16.271Z,1018.56
2022-08-28T09:09:16.451Z,1018.53
2022-08-28T09:10:16.632Z,1018.59
2022-08-28T09:11:16.812Z,1018.57
2022-08-28T09:12:17.012Z,1018.55
2022-08-28T09:13:17.184Z,1018.52
2022-08-28T09:14:17.362Z,1018.52
2022-08-28T09:15:17.551Z,1018.54
2022-08-28T09:16:17.764Z,1018.54
2022-08-28T09:17:17.886Z,1018.60
2022-08-28T09:18:18.053Z,1018.63
2022-08-28T09:19:18.234Z,1018.55
2022-08-28T09:20:18.393Z,1018.56
2022-08-28T09:21:18.543Z,1018.56
2022-08-28T09:22:18.742Z,1018.59
2022-08-28T09:23:18.904Z,1018.60
2022-08-28T09:24:19.101Z,1018.59
2022-08-28T09:25:19.273Z,1018.60
2022-08-28T09:26:19.464Z,1018.59
2022-08-28T09:27:19.643Z,1018.59
2022-08-28T09:28:19.794Z,1018.59
2022-08-28T09:29:19.953Z,1018.59
2022-08-28T09:30:20.133Z,1018.57
2022-08-28T09:31:20.415Z,1018.59
2022-08-28T09:32:20.492Z,1018.54
2022-08-28T09:33:20.633Z,1018.55
2022-08-28T09:34:20.815Z,1018.55
2022-08-28T09:35:20.993Z,1018.63
2022-08-28T09:36:21.171Z,1018.62
2022-08-28T09:37:21.335Z,1018.65
2022-08-28T09:38:21.515Z,1018.65
2022-08-28T09:39:21.696Z,1018.64
2022-08-28T09:40:21.991Z,1018.70
2022-08-28T09:41:22.044Z,1018.69
2022-08-28T09:42:22.236Z,1018.68
2022-08-28T09:43:22.428Z,1018.72
2022-08-28T09:44:22.545Z,1018.71
2022-08-28T09:45:22.725Z,1018.68
2022-08-28T09:46:22.942Z,1018.69
2022-08-28T09:47:23.096Z,1018.66
2022-08-28T09:48:23.246Z,1018.71
2022-08-28T09:49:23.425Z,1018.70
2022-08-28T09:50:23.584Z,1018.69
2022-08-28T09:51:23.756Z,1018.66
2022-08-28T09:52:25.379Z,1018.70
2022-08-28T09:53:24.106Z,1018.72
2022-08-28T09:54:24.294Z,1018.74
2022-08-28T09:55:24.500Z,1018.74
2022-08-28T09:56:24.657Z,1018.71
2022-08-28T09:57:24.854Z,1018.69
2022-08-28T09:58:25.006Z,1018.79
2022-08-28T09:59:25.177Z,1018.80
2022-08-28T10:00:25.366Z,1018.78
2022-08-28T10:01:25.642Z,1018.80
2022-08-28T10:02:25.716Z,1018.73
2022-08-28T10:03:25.867Z,1018.77
2022-08-28T10:04:26.159Z,1018.80
2022-08-28T10:05:26.812Z,1018.83
2022-08-28T10:06:26.410Z,1018.85
2022-08-28T10:07:26.597Z,1018.85
2022-08-28T10:08:26.745Z,1018.88
2022-08-28T10:09:26.918Z,1018.97
2022-08-28T10:10:27.115Z,1018.94
2022-08-28T10:11:27.309Z,1018.93
2022-08-28T10:12:27.459Z,1018.90
2022-08-28T10:13:27.638Z,1018.94
2022-08-28T10:14:27.829Z,1018.95
2022-08-28T10:15:28.030Z,1018.97
2022-08-28T10:16:28.274Z,1018.96
2022-08-28T10:17:28.399Z,1018.99
2022-08-28T10:18:28.557Z,1018.99
2022-08-28T10:19:28.739Z,1018.98
2022-08-28T10:20:28.936Z,1018.93
2022-08-28T10:21:29.119Z,1018.95
2022-08-28T10:22:29.279Z,1018.94
2022-08-28T10:23:29.429Z,1018.97
2022-08-28T10:24:29.609Z,1018.94
2022-08-28T10:25:29.790Z,1018.94
2022-08-28T10:26:29.990Z,1018.98
2022-08-28T10:27:30.141Z,1018.93
2022-08-28T10:28:30.310Z,1018.95
2022-08-28T10:29:30.471Z,1018.97
2022-08-28T10:30:30.660Z,1019.01
2022-08-28T10:31:31.679Z,1018.96
2022-08-28T10:32:30.980Z,1019.06
2022-08-28T10:33:31.141Z,1019.02
2022-08-28T10:34:31.300Z,1019.05
2022-08-28T10:35:31.460Z,1019.01
2022-08-28T10:36:34.491Z,1019.00
2022-08-28T10:37:31.799Z,1019.03
2022-08-28T10:38:31.979Z,1019.02
2022-08-28T10:39:32.151Z,1019.03
2022-08-28T10:40:32.378Z,1019.07
2022-08-28T10:41:32.531Z,1019.07
2022-08-28T10:42:36.185Z,1019.10
2022-08-28T10:43:32.872Z,1019.06
2022-08-28T10:44:33.079Z,1019.09
2022-08-28T10:45:33.252Z,1019.09
2022-08-28T10:46:33.537Z,1019.11
2022-08-28T10:47:33.622Z,1019.08
2022-08-28T10:48:33.809Z,1019.08
2022-08-28T10:49:33.971Z,1019.09
2022-08-28T10:50:34.152Z,1019.12
2022-08-28T10:51:35.866Z,1019.10
2022-08-28T10:52:34.494Z,1019.11
2022-08-28T10:53:34.672Z,1019.13
2022-08-28T10:54:34.855Z,1019.09
2022-08-28T10:55:35.011Z,1019.14
2022-08-28T10:56:35.210Z,1019.16
2022-08-28T10:57:39.536Z,1019.16
2022-08-28T10:58:35.541Z,1019.15
2022-08-28T10:59:42.076Z,1019.15
2022-08-28T11:00:36.885Z,1019.17
2022-08-28T11:01:36.115Z,1019.20
2022-08-28T11:02:36.289Z,1019.15
2022-08-28T11:03:36.426Z,1019.21
2022-08-28T11:04:36.583Z,1019.19
2022-08-28T11:05:36.763Z,1019.15
2022-08-28T11:06:36.964Z,1019.19
2022-08-28T11:07:37.178Z,1019.19
2022-08-28T11:08:37.294Z,1019.20
2022-08-28T11:09:37.475Z,1019.19
2022-08-28T11:10:37.666Z,1019.17
2022-08-28T11:11:37.845Z,1019.17
2022-08-28T11:12:38.056Z,1019.14
2022-08-28T11:13:38.174Z,1019.19
2022-08-28T11:14:44.598Z,1019.12
2022-08-28T11:15:39.535Z,1019.20
2022-08-28T11:16:40.227Z,1019.18
2022-08-28T11:17:38.895Z,1019.19
2022-08-28T11:18:39.082Z,1019.17
2022-08-28T11:19:43.836Z,1019.16
2022-08-28T11:20:40.445Z,1019.14
2022-08-28T11:21:39.627Z,1019.15
2022-08-28T11:22:39.772Z,1019.18
2022-08-28T11:23:39.936Z,1019.20
2022-08-28T11:24:43.563Z,1019.22
2022-08-28T11:25:40.306Z,1019.18
2022-08-28T11:26:40.506Z,1019.19
2022-08-28T11:27:40.655Z,1019.18
2022-08-28T11:28:40.844Z,1019.20
2022-08-28T11:29:41.025Z,1019.17
2022-08-28T11:30:41.225Z,1019.15
2022-08-28T11:31:41.409Z,1019.22
2022-08-28T11:32:46.900Z,1019.20
2022-08-28T11:33:42.760Z,1019.19
2022-08-28T11:34:41.947Z,1019.22
2022-08-28T11:35:42.124Z,1019.20
2022-08-28T11:36:42.257Z,1019.19
2022-08-28T11:37:42.418Z,1019.17
2022-08-28T11:38:42.589Z,1019.23
2022-08-28T11:39:42.748Z,1019.24
2022-08-28T11:40:42.941Z,1019.22
2022-08-28T11:41:43.078Z,1019.20
2022-08-28T11:42:43.267Z,1019.17
2022-08-28T11:43:43.438Z,1019.16
2022-08-28T11:44:43.618Z,1019.13
2022-08-28T11:45:45.653Z,1019.16
2022-08-28T11:46:44.045Z,1019.12
2022-08-28T11:47:44.118Z,1019.12
2022-08-28T11:48:44.292Z,1019.09
2022-08-28T11:49:44.449Z,1019.09
2022-08-28T11:50:44.628Z,1019.16
2022-08-28T11:51:44.799Z,1019.17
2022-08-28T11:52:44.979Z,1019.12
2022-08-28T11:53:45.150Z,1019.16
2022-08-28T11:54:45.319Z,1019.16
2022-08-28T11:55:45.489Z,1019.14
2022-08-28T11:56:45.659Z,1019.13
2022-08-28T11:57:45.821Z,1019.09
2022-08-28T11:58:45.990Z,1019.14
2022-08-28T11:59:46.150Z,1019.11
2022-08-28T12:00:46.340Z,1019.15
2022-08-28T12:01:46.504Z,1019.17
2022-08-28T12:02:46.712Z,1019.10
2022-08-28T12:03:46.860Z,1019.09
2022-08-28T12:04:47.114Z,1019.11
2022-08-28T12:05:47.209Z,1019.13
2022-08-28T12:06:47.361Z,1019.05
2022-08-28T12:07:47.525Z,1019.05